Legend :    VFR   Marginal VFR   IFR   Intensive IFR   Very Intensive IFR
Visi :
Ceiling :
>= 8 km
>= 3000ft
5 to 8 km
1000 to 3000 ft
1500m to 5 km
500 to 1000 ft
800 to 1500m
200 to 500 ft
< 800m
< 200 ft
Symbols :   Thunderstorms  Fog  Heavy snow  Heavy precipitations  Wind > 20 kt
SIGMETs :     Misc.  Thunderstorms  Icing  Turbulence  Mountain Waves  Volcanic Ashes







- Airport Elevation : 876 ft
- IATA code : MBX


LJMB - Maribor

CURRENT METAR :
  • 260230Z AUTO VRB01KT 7000 BKN038/// 19/18 Q1020

EXPIRED METARs :
  • 260200Z AUTO VRB01KT 9999 FEW037/// BKN250/// 19/18 Q1020
  • 260130Z AUTO 34004KT 4900 BR NSC 18/17 Q1020
  • 260100Z AUTO VRB01KT 6000 FEW036/// 19/17 Q1020
  • 260030Z AUTO VRB01KT 8000 BKN036/// 19/18 Q1020
  • 260000Z AUTO 22002KT 8000 SCT035/// 19/18 Q1020
  • 252330Z AUTO VRB01KT 9999 NCD 20/18 Q1020

TAF TAF LJMB
Valid from the 26 at 00:00 until the 27 at 00:00 UTC


252300Z 2600/2624 34005KT 9999 FEW033 SCT050
BECMG 2601/2604 SCT045 BKN090
TEMPO 2609/2616 01012KT
BECMG 2612/2615 SCT050
TEMPO 2616/2624 VRB10KT 4000 TSRA SCT045CB OVC060
No reported NOTAMs for that airfield.


LOGIN :  

Disclaimer |     EN      FR      IT